createdAt,value
2019-04-07T00:02:28.223Z,99.90
2019-04-07T00:05:09.332Z,99.90
2019-04-07T00:07:30.134Z,99.90
2019-04-07T00:10:00.467Z,99.90
2019-04-07T00:12:31.046Z,99.90
2019-04-07T00:15:01.661Z,99.90
2019-04-07T00:17:32.257Z,99.90
2019-04-07T00:20:02.628Z,99.90
2019-04-07T00:22:33.591Z,99.90
2019-04-07T00:25:04.320Z,99.90
2019-04-07T00:27:34.303Z,99.90
2019-04-07T00:30:04.952Z,99.90
2019-04-07T00:32:35.064Z,99.90
2019-04-07T00:35:05.993Z,99.90
2019-04-07T00:37:36.308Z,99.90
2019-04-07T00:40:07.457Z,99.90
2019-04-07T00:42:38.114Z,99.90
2019-04-07T00:45:08.719Z,99.90
2019-04-07T00:47:39.049Z,99.90
2019-04-07T00:50:11.963Z,99.90
2019-04-07T00:52:42.684Z,99.90
2019-04-07T00:55:13.277Z,99.90
2019-04-07T00:57:44.079Z,99.90
2019-04-07T01:00:17.066Z,99.90
2019-04-07T01:02:47.488Z,99.90
2019-04-07T01:05:18.001Z,99.90
2019-04-07T01:07:48.773Z,99.90
2019-04-07T01:10:21.693Z,99.90
2019-04-07T01:12:52.177Z,99.90
2019-04-07T01:15:23.016Z,99.90
2019-04-07T01:17:53.356Z,99.90
2019-04-07T01:20:24.347Z,99.90
2019-04-07T01:22:54.179Z,99.90
2019-04-07T01:25:24.212Z,99.90
2019-04-07T01:27:54.447Z,99.90
2019-04-07T01:30:25.265Z,99.90
2019-04-07T01:32:56.215Z,99.90
2019-04-07T01:35:26.739Z,99.90
2019-04-07T01:37:57.061Z,99.90
2019-04-07T01:40:27.243Z,99.90
2019-04-07T01:43:17.949Z,99.90
2019-04-07T01:46:11.435Z,99.90
2019-04-07T01:48:54.357Z,99.90
2019-04-07T01:51:42.269Z,99.90
2019-04-07T01:54:29.572Z,99.90
2019-04-07T01:57:36.994Z,99.90
2019-04-07T02:00:13.776Z,99.90
2019-04-07T02:03:12.359Z,99.90
2019-04-07T02:06:03.681Z,99.90
2019-04-07T02:08:43.544Z,99.90
2019-04-07T02:11:19.761Z,99.90
2019-04-07T02:13:58.351Z,99.90
2019-04-07T02:16:35.646Z,99.90
2019-04-07T02:19:24.102Z,99.90
2019-04-07T02:22:25.638Z,99.90
2019-04-07T02:25:14.785Z,99.90
2019-04-07T02:28:03.419Z,99.90
2019-04-07T02:30:52.278Z,99.90
2019-04-07T02:33:31.515Z,99.90
2019-04-07T02:36:30.771Z,99.90
2019-04-07T02:39:18.049Z,99.90
2019-04-07T02:41:55.670Z,99.90
2019-04-07T02:44:54.009Z,99.90
2019-04-07T02:47:46.852Z,99.90
2019-04-07T02:50:34.989Z,99.90
2019-04-07T02:53:21.635Z,99.90
2019-04-07T02:56:01.573Z,99.90
2019-04-07T02:58:58.131Z,99.90
2019-04-07T03:01:57.259Z,99.90
2019-04-07T03:04:46.072Z,99.90
2019-04-07T03:07:25.066Z,99.90
2019-04-07T03:10:29.297Z,99.90
2019-04-07T03:13:16.875Z,99.90
2019-04-07T03:15:54.719Z,99.90
2019-04-07T03:19:00.188Z,99.90
2019-04-07T03:21:55.499Z,99.90
2019-04-07T03:24:44.539Z,99.90
2019-04-07T03:27:36.818Z,99.90
2019-04-07T03:30:28.509Z,99.90
2019-04-07T03:33:14.238Z,99.90
2019-04-07T03:36:05.851Z,99.90
2019-04-07T03:38:54.050Z,99.90
2019-04-07T03:41:52.626Z,99.90
2019-04-07T03:44:36.551Z,99.90
2019-04-07T03:47:30.126Z,99.90
2019-04-07T03:50:21.825Z,99.90
2019-04-07T03:52:59.156Z,99.90
2019-04-07T03:55:46.892Z,99.90
2019-04-07T03:58:44.813Z,99.90
2019-04-07T04:01:35.395Z,99.90
2019-04-07T04:04:28.596Z,99.90
2019-04-07T04:07:20.224Z,99.90
2019-04-07T04:10:03.381Z,99.90
2019-04-07T04:12:56.483Z,99.90
2019-04-07T04:15:40.331Z,99.90
2019-04-07T04:18:10.199Z,99.90
2019-04-07T04:20:40.886Z,99.90
2019-04-07T04:23:12.588Z,99.90
2019-04-07T04:25:43.053Z,99.90
2019-04-07T04:28:14.331Z,99.90
2019-04-07T04:30:44.975Z,99.90
2019-04-07T04:33:15.885Z,99.90
2019-04-07T04:35:46.271Z,99.90
2019-04-07T04:38:17.715Z,99.90
2019-04-07T04:40:49.350Z,99.90
2019-04-07T04:43:19.794Z,99.90
2019-04-07T04:45:50.467Z,99.90
2019-04-07T04:48:20.550Z,99.90
2019-04-07T04:50:50.929Z,99.90
2019-04-07T04:53:22.535Z,99.90
2019-04-07T04:55:53.552Z,99.90
2019-04-07T04:58:24.711Z,99.90
2019-04-07T05:00:55.465Z,99.90
2019-04-07T05:03:26.005Z,99.90
2019-04-07T05:05:56.379Z,99.90
2019-04-07T05:08:29.555Z,99.90
2019-04-07T05:11:00.057Z,99.90
2019-04-07T05:13:30.609Z,99.90
2019-04-07T05:16:01.825Z,99.90
2019-04-07T05:18:32.416Z,99.90
2019-04-07T05:21:03.101Z,99.90
2019-04-07T05:23:33.329Z,99.90
2019-04-07T05:26:03.611Z,99.90
2019-04-07T05:28:36.931Z,99.90
2019-04-07T05:31:07.227Z,99.90
2019-04-07T05:33:38.717Z,99.90
2019-04-07T05:36:08.870Z,99.90
2019-04-07T05:38:39.541Z,99.90
2019-04-07T05:41:09.588Z,99.90
2019-04-07T05:43:39.576Z,99.90
2019-04-07T05:46:10.041Z,99.90
2019-04-07T05:48:40.396Z,99.90
2019-04-07T05:51:10.894Z,99.90
2019-04-07T05:53:44.083Z,99.90
2019-04-07T05:56:13.434Z,99.90
2019-04-07T05:58:43.875Z,99.90
2019-04-07T06:01:14.089Z,99.90
2019-04-07T06:03:43.992Z,99.90
2019-04-07T06:06:14.597Z,99.90
2019-04-07T06:08:47.037Z,99.90
2019-04-07T06:11:17.009Z,99.90
2019-04-07T06:13:47.511Z,99.90
2019-04-07T06:16:18.537Z,99.90
2019-04-07T06:18:50.067Z,99.90
2019-04-07T06:21:20.004Z,99.90
2019-04-07T06:23:49.848Z,99.90
2019-04-07T06:26:19.835Z,99.30
2019-04-07T06:28:53.255Z,97.70
2019-04-07T06:31:24.397Z,96.90
2019-04-07T06:33:54.903Z,93.60
2019-04-07T06:36:26.587Z,94.90
2019-04-07T06:38:56.936Z,91.50
2019-04-07T06:41:29.516Z,90.90
2019-04-07T06:44:09.524Z,93.30
2019-04-07T06:46:45.820Z,91.80
2019-04-07T06:49:22.833Z,85.90
2019-04-07T06:52:04.698Z,76.10
2019-04-07T06:54:55.699Z,72.60
2019-04-07T06:58:00.341Z,67.90
2019-04-07T07:00:40.833Z,65.50
2019-04-07T07:03:29.139Z,62.50
2019-04-07T07:06:11.107Z,59.80
2019-04-07T07:08:47.520Z,58.30
2019-04-07T07:11:55.120Z,57.30
2019-04-07T07:15:00.926Z,55.70
2019-04-07T07:17:47.826Z,54.90
2019-04-07T07:20:50.547Z,52.50
2019-04-07T07:23:25.310Z,51.30
2019-04-07T07:25:56.459Z,50.40
2019-04-07T07:28:27.321Z,47.90
2019-04-07T07:30:57.929Z,47.60
2019-04-07T07:33:28.043Z,46.80
2019-04-07T07:35:59.300Z,46.60
2019-04-07T07:38:32.155Z,44.80
2019-04-07T07:41:03.432Z,43.80
2019-04-07T07:43:33.755Z,43.30
2019-04-07T07:46:03.753Z,43.00
2019-04-07T07:48:34.558Z,40.70
2019-04-07T07:51:07.141Z,40.20
2019-04-07T07:53:36.205Z,40.30
2019-04-07T07:56:10.594Z,39.50
2019-04-07T07:58:38.505Z,40.50
2019-04-07T08:01:11.286Z,40.40
2019-04-07T08:03:41.333Z,42.80
2019-04-07T08:06:11.826Z,44.50
2019-04-07T08:08:45.191Z,46.20
2019-04-07T08:11:15.703Z,41.10
2019-04-07T08:13:46.146Z,42.80
2019-04-07T08:16:17.404Z,45.60
2019-04-07T08:18:47.926Z,49.00
2019-04-07T08:21:19.947Z,46.90
2019-04-07T08:23:49.598Z,47.60
2019-04-07T08:26:20.427Z,47.50
2019-04-07T08:28:51.409Z,49.10
2019-04-07T08:31:21.682Z,52.40
2019-04-07T08:33:52.750Z,51.60
2019-04-07T08:36:23.777Z,51.70
2019-04-07T08:38:56.093Z,53.90
2019-04-07T08:41:26.714Z,52.90
2019-04-07T08:43:57.860Z,51.30
2019-04-07T08:46:35.215Z,50.10
2019-04-07T08:49:04.949Z,50.80
2019-04-07T08:51:35.133Z,49.40
2019-04-07T08:54:07.257Z,47.60
2019-04-07T08:56:37.762Z,46.60
2019-04-07T08:59:11.863Z,47.00
2019-04-07T09:01:41.557Z,49.30
2019-04-07T09:04:15.087Z,51.30
2019-04-07T09:06:43.837Z,51.90
2019-04-07T09:09:14.053Z,50.20
2019-04-07T09:11:44.777Z,47.40
2019-04-07T09:14:16.399Z,48.30
2019-04-07T09:17:06.998Z,49.10
2019-04-07T09:20:10.246Z,47.90
2019-04-07T09:22:56.079Z,49.30
2019-04-07T09:25:35.892Z,46.60
2019-04-07T09:28:24.079Z,46.50
2019-04-07T09:31:13.049Z,45.80
2019-04-07T09:34:03.048Z,47.30
2019-04-07T09:36:53.095Z,48.50
2019-04-07T09:39:54.774Z,48.40
2019-04-07T09:42:28.048Z,48.80
2019-04-07T09:45:07.397Z,50.10
2019-04-07T09:48:10.505Z,50.60
2019-04-07T09:50:55.454Z,49.50
2019-04-07T09:53:50.213Z,49.90
2019-04-07T09:56:37.462Z,48.60
2019-04-07T09:59:25.303Z,49.30
2019-04-07T10:02:06.743Z,47.90
2019-04-07T10:04:42.813Z,47.60
2019-04-07T10:07:42.811Z,46.10
2019-04-07T10:10:41.476Z,47.30
2019-04-07T10:13:42.721Z,48.80
2019-04-07T10:16:27.093Z,49.00
2019-04-07T10:19:16.313Z,49.10
2019-04-07T10:22:03.574Z,49.50
2019-04-07T10:24:58.564Z,50.60
2019-04-07T10:27:59.592Z,50.40
2019-04-07T10:30:43.928Z,48.70
2019-04-07T10:33:40.557Z,48.20
2019-04-07T10:36:28.645Z,46.50
2019-04-07T10:39:16.341Z,46.80
2019-04-07T10:41:57.920Z,48.70
2019-04-07T10:44:46.948Z,50.30
2019-04-07T10:47:32.198Z,49.40
2019-04-07T10:50:11.439Z,51.00
2019-04-07T10:53:00.228Z,52.80
2019-04-07T10:55:45.219Z,51.80
2019-04-07T10:58:34.516Z,52.70
2019-04-07T11:01:30.070Z,52.90
2019-04-07T11:04:17.951Z,51.80
2019-04-07T11:07:19.051Z,49.70
2019-04-07T11:10:01.247Z,49.70
2019-04-07T11:13:03.116Z,50.40
2019-04-07T11:15:44.919Z,50.20
2019-04-07T11:18:25.427Z,49.00
2019-04-07T11:21:14.354Z,49.80
2019-04-07T11:24:03.984Z,49.80
2019-04-07T11:26:51.752Z,50.60
2019-04-07T11:29:39.393Z,50.40
2019-04-07T11:32:28.236Z,51.70
2019-04-07T11:35:15.343Z,52.80
2019-04-07T11:37:55.512Z,52.30
2019-04-07T11:40:45.904Z,51.20
2019-04-07T11:43:17.978Z,51.60
2019-04-07T11:46:00.084Z,52.20
2019-04-07T11:49:00.872Z,52.10
2019-04-07T11:51:36.962Z,51.90
2019-04-07T11:54:18.532Z,52.70
2019-04-07T11:56:57.450Z,54.00
2019-04-07T11:59:50.256Z,52.80
2019-04-07T12:02:35.298Z,54.20
2019-04-07T12:05:31.106Z,53.80
2019-04-07T12:08:36.136Z,52.60
2019-04-07T12:11:26.488Z,50.70
2019-04-07T12:14:31.925Z,50.40
2019-04-07T12:17:17.735Z,49.50
2019-04-07T12:20:10.769Z,51.00
2019-04-07T12:22:52.860Z,51.50
2019-04-07T12:25:43.137Z,52.20
2019-04-07T12:28:31.336Z,51.70
2019-04-07T12:31:07.537Z,52.10
2019-04-07T12:33:50.645Z,51.70
2019-04-07T12:36:31.086Z,53.60
2019-04-07T12:39:24.054Z,54.30
2019-04-07T12:42:18.880Z,53.90
2019-04-07T12:44:55.574Z,51.90
2019-04-07T12:47:50.757Z,52.60
2019-04-07T12:50:39.735Z,52.90
2019-04-07T12:53:26.313Z,52.60
2019-04-07T12:56:15.750Z,53.60
2019-04-07T12:59:00.214Z,54.70
2019-04-07T13:01:47.068Z,56.30
2019-04-07T13:04:39.686Z,58.20
2019-04-07T13:07:19.410Z,58.90
2019-04-07T13:10:02.959Z,57.50
2019-04-07T13:12:43.305Z,57.50
2019-04-07T13:15:32.255Z,56.40
2019-04-07T13:18:10.567Z,54.60
2019-04-07T13:21:10.388Z,56.90
2019-04-07T13:24:28.881Z,58.20
2019-04-07T13:27:14.175Z,59.10
2019-04-07T13:29:56.575Z,59.20
2019-04-07T13:32:41.813Z,60.00
2019-04-07T13:35:37.443Z,61.00
2019-04-07T13:38:35.820Z,58.90
2019-04-07T13:41:38.717Z,57.80
2019-04-07T13:44:36.753Z,56.80
2019-04-07T13:47:29.141Z,54.60
2019-04-07T13:50:20.367Z,54.50
2019-04-07T13:53:20.710Z,56.20
2019-04-07T13:56:03.008Z,57.60
2019-04-07T13:58:41.115Z,57.20
2019-04-07T14:01:25.695Z,57.90
2019-04-07T14:04:17.968Z,57.10
2019-04-07T14:07:00.355Z,57.90
2019-04-07T14:09:41.968Z,58.40
2019-04-07T14:12:19.577Z,59.40
2019-04-07T14:15:07.888Z,60.00
2019-04-07T14:17:51.415Z,59.50
2019-04-07T14:20:44.097Z,58.20
2019-04-07T14:23:32.123Z,57.70
2019-04-07T14:26:11.370Z,56.80
2019-04-07T14:29:01.935Z,57.00
2019-04-07T14:31:39.111Z,57.50
2019-04-07T14:34:31.616Z,57.50
2019-04-07T14:37:17.481Z,58.90
2019-04-07T14:40:01.442Z,58.10
2019-04-07T14:42:57.139Z,57.90
2019-04-07T14:45:44.546Z,56.10
2019-04-07T14:48:33.724Z,55.30
2019-04-07T14:51:21.827Z,57.30
2019-04-07T14:54:23.425Z,58.10
2019-04-07T14:57:25.520Z,58.90
2019-04-07T15:00:29.821Z,58.90
2019-04-07T15:03:00.847Z,59.40
2019-04-07T15:05:34.275Z,61.10
2019-04-07T15:08:24.761Z,60.20
2019-04-07T15:11:01.495Z,60.20
2019-04-07T15:13:32.111Z,60.40
2019-04-07T15:16:02.434Z,61.30
2019-04-07T15:18:32.651Z,60.70
2019-04-07T15:21:03.522Z,60.00
2019-04-07T15:23:33.634Z,60.20
2019-04-07T15:26:03.685Z,60.70
2019-04-07T15:28:34.103Z,60.70
2019-04-07T15:31:04.333Z,61.80
2019-04-07T15:33:35.184Z,61.60
2019-04-07T15:36:07.952Z,61.90
2019-04-07T15:38:40.224Z,63.20
2019-04-07T15:41:15.169Z,64.00
2019-04-07T15:43:41.184Z,63.40
2019-04-07T15:46:13.027Z,62.40
2019-04-07T15:48:48.256Z,63.70
2019-04-07T15:51:19.424Z,64.00
2019-04-07T15:53:51.619Z,64.50
2019-04-07T15:56:22.210Z,64.60
2019-04-07T15:58:52.840Z,65.20
2019-04-07T16:01:23.783Z,65.50
2019-04-07T16:03:54.837Z,65.20
2019-04-07T16:06:25.876Z,65.70
2019-04-07T16:08:59.418Z,65.80
2019-04-07T16:11:30.312Z,65.30
2019-04-07T16:14:00.041Z,64.90
2019-04-07T16:16:30.749Z,64.80
2019-04-07T16:19:01.418Z,65.60
2019-04-07T16:21:31.516Z,65.40
2019-04-07T16:24:04.054Z,66.30
2019-04-07T16:26:36.969Z,66.20
2019-04-07T16:29:08.071Z,65.80
2019-04-07T16:31:39.067Z,66.10
2019-04-07T16:34:10.317Z,66.90
2019-04-07T16:36:41.300Z,66.90
2019-04-07T16:39:11.555Z,67.40
2019-04-07T16:41:45.912Z,67.80
2019-04-07T16:44:15.957Z,68.90
2019-04-07T16:46:46.735Z,67.80
2019-04-07T16:49:19.016Z,68.50
2019-04-07T16:51:49.433Z,68.80
2019-04-07T16:54:19.936Z,68.90
2019-04-07T16:56:54.884Z,69.50
2019-04-07T16:59:22.335Z,70.30
2019-04-07T17:01:52.965Z,70.90
2019-04-07T17:04:23.109Z,71.70
2019-04-07T17:07:00.195Z,71.90
2019-04-07T17:09:28.042Z,72.80
2019-04-07T17:11:57.791Z,72.80
2019-04-07T17:14:31.946Z,73.00
2019-04-07T17:17:00.266Z,73.10
2019-04-07T17:19:32.013Z,73.80
2019-04-07T17:22:03.085Z,74.00
2019-04-07T17:24:33.438Z,74.90
2019-04-07T17:27:04.568Z,75.20
2019-04-07T17:29:34.843Z,76.50
2019-04-07T17:32:06.255Z,77.00
2019-04-07T17:34:36.839Z,78.00
2019-04-07T17:37:07.247Z,78.40
2019-04-07T17:39:55.883Z,79.80
2019-04-07T17:42:28.298Z,80.80
2019-04-07T17:45:11.830Z,81.30
2019-04-07T17:47:57.278Z,81.60
2019-04-07T17:50:45.459Z,82.30
2019-04-07T17:53:23.502Z,83.50
2019-04-07T17:56:10.782Z,84.70
2019-04-07T17:58:49.716Z,86.30
2019-04-07T18:01:55.424Z,88.20
2019-04-07T18:04:34.856Z,88.80
2019-04-07T18:07:23.623Z,88.80
2019-04-07T18:10:02.711Z,90.30
2019-04-07T18:12:40.154Z,90.10
2019-04-07T18:15:26.326Z,91.10
2019-04-07T18:18:18.678Z,91.70
2019-04-07T18:21:06.032Z,92.30
2019-04-07T18:23:59.792Z,93.40
2019-04-07T18:26:40.458Z,93.80
2019-04-07T18:29:17.215Z,94.80
2019-04-07T18:32:07.562Z,95.10
2019-04-07T18:34:57.043Z,95.60
2019-04-07T18:37:44.280Z,96.00
2019-04-07T18:40:35.120Z,96.80
2019-04-07T18:43:23.001Z,97.30
2019-04-07T18:46:16.953Z,98.00
2019-04-07T18:49:15.795Z,98.50
2019-04-07T18:51:58.080Z,98.70
2019-04-07T18:54:46.481Z,99.20
2019-04-07T18:57:37.154Z,99.70
2019-04-07T19:00:42.378Z,99.90
2019-04-07T19:03:51.944Z,99.90
2019-04-07T19:06:47.653Z,99.90
2019-04-07T19:09:35.923Z,99.90
2019-04-07T19:12:24.714Z,99.90
2019-04-07T19:15:29.855Z,99.90
2019-04-07T19:18:24.811Z,99.90
2019-04-07T19:21:13.811Z,99.90
2019-04-07T19:24:03.101Z,99.90
2019-04-07T19:27:11.864Z,99.90
2019-04-07T19:29:52.130Z,99.90
2019-04-07T19:32:29.250Z,99.90
2019-04-07T19:35:25.057Z,99.90
2019-04-07T19:38:20.650Z,99.90
2019-04-07T19:41:07.198Z,99.90
2019-04-07T19:43:55.639Z,99.90
2019-04-07T19:46:38.693Z,99.90
2019-04-07T19:49:20.584Z,99.90
2019-04-07T19:52:09.118Z,99.90
2019-04-07T19:54:51.325Z,99.90
2019-04-07T19:57:30.399Z,99.90
2019-04-07T20:00:14.236Z,99.90
2019-04-07T20:03:09.683Z,99.90
2019-04-07T20:05:51.617Z,99.90
2019-04-07T20:08:42.094Z,99.90
2019-04-07T20:11:29.601Z,99.90
2019-04-07T20:14:10.364Z,99.90
2019-04-07T20:16:55.605Z,99.90
2019-04-07T20:19:37.263Z,99.90
2019-04-07T20:22:24.996Z,99.90
2019-04-07T20:25:15.732Z,99.90
2019-04-07T20:28:06.925Z,99.90
2019-04-07T20:30:59.992Z,99.90
2019-04-07T20:33:46.916Z,99.90
2019-04-07T20:36:44.432Z,99.90
2019-04-07T20:39:21.350Z,99.90
2019-04-07T20:42:00.910Z,99.90
2019-04-07T20:44:39.911Z,99.90
2019-04-07T20:47:21.875Z,99.90
2019-04-07T20:50:20.073Z,99.90
2019-04-07T20:53:14.590Z,99.90
2019-04-07T20:56:11.512Z,99.90
2019-04-07T20:59:03.240Z,99.90
2019-04-07T21:02:04.486Z,99.90
2019-04-07T21:04:51.486Z,99.90
2019-04-07T21:07:35.482Z,99.90
2019-04-07T21:10:23.152Z,99.90
2019-04-07T21:12:58.897Z,99.90
2019-04-07T21:15:50.598Z,99.90
2019-04-07T21:18:33.963Z,99.90
2019-04-07T21:21:22.139Z,99.90
2019-04-07T21:24:06.288Z,99.90
2019-04-07T21:26:42.594Z,99.90
2019-04-07T21:29:22.453Z,99.90
2019-04-07T21:31:59.768Z,99.90
2019-04-07T21:34:56.241Z,99.90
2019-04-07T21:37:40.828Z,99.90
2019-04-07T21:40:17.529Z,99.90
2019-04-07T21:43:04.704Z,99.90
2019-04-07T21:45:50.375Z,99.90
2019-04-07T21:48:33.011Z,99.90
2019-04-07T21:51:28.977Z,99.90
2019-04-07T21:54:07.670Z,99.90
2019-04-07T21:57:06.013Z,99.90
2019-04-07T22:00:01.079Z,99.90
2019-04-07T22:02:49.250Z,99.90
2019-04-07T22:05:26.888Z,99.90
2019-04-07T22:08:09.566Z,99.90
2019-04-07T22:10:34.013Z,99.90
2019-04-07T22:13:06.649Z,99.90
2019-04-07T22:15:47.342Z,99.90
2019-04-07T22:18:08.982Z,99.90
2019-04-07T22:20:39.859Z,99.90
2019-04-07T22:23:10.091Z,99.90
2019-04-07T22:25:50.587Z,99.90
2019-04-07T22:28:20.795Z,99.90
2019-04-07T22:30:52.147Z,99.90
2019-04-07T22:33:25.191Z,99.90
2019-04-07T22:35:53.742Z,99.90
2019-04-07T22:38:23.907Z,99.90
2019-04-07T22:40:54.258Z,99.90
2019-04-07T22:43:24.987Z,99.90
2019-04-07T22:46:06.623Z,99.90
2019-04-07T22:48:28.070Z,99.90
2019-04-07T22:50:59.042Z,99.90
2019-04-07T22:53:31.376Z,99.90
2019-04-07T22:56:04.766Z,99.90
2019-04-07T22:58:33.288Z,99.90
2019-04-07T23:01:03.299Z,99.90
2019-04-07T23:03:33.452Z,99.90
2019-04-07T23:06:03.885Z,99.90
2019-04-07T23:08:34.949Z,99.90
2019-04-07T23:11:05.225Z,99.90
2019-04-07T23:13:35.502Z,99.90
2019-04-07T23:16:10.738Z,99.90
2019-04-07T23:18:38.032Z,99.90
2019-04-07T23:21:08.191Z,99.90
2019-04-07T23:23:39.883Z,99.90
2019-04-07T23:26:09.809Z,99.90
2019-04-07T23:28:40.618Z,99.90
2019-04-07T23:31:10.577Z,99.90
2019-04-07T23:33:40.507Z,99.90
2019-04-07T23:36:11.384Z,99.90
2019-04-07T23:38:41.682Z,99.90
2019-04-07T23:41:11.751Z,99.90
2019-04-07T23:43:42.060Z,99.90
2019-04-07T23:46:20.764Z,99.90
2019-04-07T23:48:44.127Z,99.90
2019-04-07T23:51:14.318Z,99.90
2019-04-07T23:54:20.330Z,99.90
2019-04-07T23:56:50.300Z,99.90
2019-04-07T23:59:20.725Z,99.90
